sensor_id;sensor_type;location;lat;lon;timestamp;P1;durP1;ratioP1;P2;durP2;ratioP2
58015;SDS011;43809;52.110;20.964;2024-03-23T00:55:15;26.67;;;20.27;;
58015;SDS011;43809;52.110;20.964;2024-03-23T00:57:16;25.55;;;19.13;;
58015;SDS011;43809;52.110;20.964;2024-03-23T00:59:16;27.75;;;19.45;;
58015;SDS011;43809;52.110;20.964;2024-03-23T01:01:19;26.30;;;19.95;;
58015;SDS011;43809;52.110;20.964;2024-03-23T01:03:20;23.75;;;18.42;;
58015;SDS011;43809;52.110;20.964;2024-03-23T01:05:21;26.27;;;19.92;;
58015;SDS011;43809;52.110;20.964;2024-03-23T01:07:21;22.63;;;17.90;;
58015;SDS011;43809;52.110;20.964;2024-03-23T01:09:22;25.08;;;19.35;;
58015;SDS011;43809;52.110;20.964;2024-03-23T01:11:23;26.65;;;19.50;;
58015;SDS011;43809;52.110;20.964;2024-03-23T01:13:24;28.30;;;20.00;;
58015;SDS011;43809;52.110;20.964;2024-03-23T01:15:25;27.95;;;19.98;;
58015;SDS011;43809;52.110;20.964;2024-03-23T01:17:25;26.05;;;19.77;;
58015;SDS011;43809;52.110;20.964;2024-03-23T01:19:26;26.30;;;20.13;;
58015;SDS011;43809;52.110;20.964;2024-03-23T01:21:27;25.00;;;18.70;;
58015;SDS011;43809;52.110;20.964;2024-03-23T01:23:27;25.85;;;18.95;;
58015;SDS011;43809;52.110;20.964;2024-03-23T01:25:28;28.52;;;20.83;;
58015;SDS011;43809;52.110;20.964;2024-03-23T01:27:29;26.67;;;19.65;;
58015;SDS011;43809;52.110;20.964;2024-03-23T01:29:29;26.23;;;19.60;;
58015;SDS011;43809;52.110;20.964;2024-03-23T01:31:30;24.65;;;18.73;;
58015;SDS011;43809;52.110;20.964;2024-03-23T01:33:31;25.63;;;19.80;;
58015;SDS011;43809;52.110;20.964;2024-03-23T01:35:31;23.20;;;17.50;;
58015;SDS011;43809;52.110;20.964;2024-03-23T01:37:32;22.58;;;16.80;;
58015;SDS011;43809;52.110;20.964;2024-03-23T01:39:33;21.67;;;17.73;;
58015;SDS011;43809;52.110;20.964;2024-03-23T01:41:33;23.58;;;17.88;;
58015;SDS011;43809;52.110;20.964;2024-03-23T01:43:34;25.10;;;18.55;;
58015;SDS011;43809;52.110;20.964;2024-03-23T01:45:35;25.55;;;19.30;;
58015;SDS011;43809;52.110;20.964;2024-03-23T01:47:36;33.28;;;22.73;;
58015;SDS011;43809;52.110;20.964;2024-03-23T01:49:37;31.70;;;21.75;;
58015;SDS011;43809;52.110;20.964;2024-03-23T01:51:37;27.17;;;20.05;;
58015;SDS011;43809;52.110;20.964;2024-03-23T01:53:38;27.27;;;20.08;;
58015;SDS011;43809;52.110;20.964;2024-03-23T01:55:39;25.70;;;19.60;;
58015;SDS011;43809;52.110;20.964;2024-03-23T01:57:41;25.67;;;19.17;;
58015;SDS011;43809;52.110;20.964;2024-03-23T01:59:41;28.05;;;20.38;;
58015;SDS011;43809;52.110;20.964;2024-03-23T02:01:44;26.25;;;19.98;;
58015;SDS011;43809;52.110;20.964;2024-03-23T02:03:44;27.02;;;19.73;;
58015;SDS011;43809;52.110;20.964;2024-03-23T02:05:45;25.90;;;19.27;;
58015;SDS011;43809;52.110;20.964;2024-03-23T02:07:45;29.52;;;21.17;;
58015;SDS011;43809;52.110;20.964;2024-03-23T02:09:46;29.98;;;21.17;;
58015;SDS011;43809;52.110;20.964;2024-03-23T02:11:47;26.73;;;20.50;;
58015;SDS011;43809;52.110;20.964;2024-03-23T02:13:48;27.50;;;19.65;;
58015;SDS011;43809;52.110;20.964;2024-03-23T02:15:48;28.45;;;20.52;;
58015;SDS011;43809;52.110;20.964;2024-03-23T02:17:49;29.48;;;22.00;;
58015;SDS011;43809;52.110;20.964;2024-03-23T02:19:50;29.60;;;22.00;;
58015;SDS011;43809;52.110;20.964;2024-03-23T02:21:51;29.27;;;21.73;;
58015;SDS011;43809;52.110;20.964;2024-03-23T02:23:52;30.67;;;22.75;;
58015;SDS011;43809;52.110;20.964;2024-03-23T02:25:52;31.70;;;22.73;;
58015;SDS011;43809;52.110;20.964;2024-03-23T02:27:56;28.92;;;21.48;;
58015;SDS011;43809;52.110;20.964;2024-03-23T02:29:56;28.52;;;20.88;;
58015;SDS011;43809;52.110;20.964;2024-03-23T02:31:57;25.85;;;19.10;;
58015;SDS011;43809;52.110;20.964;2024-03-23T02:33:59;25.92;;;19.45;;
58015;SDS011;43809;52.110;20.964;2024-03-23T02:36:00;26.85;;;19.92;;
58015;SDS011;43809;52.110;20.964;2024-03-23T02:38:00;29.65;;;20.75;;
58015;SDS011;43809;52.110;20.964;2024-03-23T02:40:01;26.55;;;20.35;;
58015;SDS011;43809;52.110;20.964;2024-03-23T02:42:02;29.08;;;21.85;;
58015;SDS011;43809;52.110;20.964;2024-03-23T02:44:02;30.50;;;21.98;;
58015;SDS011;43809;52.110;20.964;2024-03-23T02:46:03;28.75;;;22.05;;
58015;SDS011;43809;52.110;20.964;2024-03-23T02:48:04;36.55;;;25.73;;
58015;SDS011;43809;52.110;20.964;2024-03-23T02:50:05;36.25;;;25.63;;
58015;SDS011;43809;52.110;20.964;2024-03-23T02:52:06;31.45;;;22.52;;
58015;SDS011;43809;52.110;20.964;2024-03-23T02:54:07;31.60;;;22.08;;
58015;SDS011;43809;52.110;20.964;2024-03-23T02:56:08;31.88;;;23.25;;
58015;SDS011;43809;52.110;20.964;2024-03-23T02:58:09;32.20;;;23.38;;
58015;SDS011;43809;52.110;20.964;2024-03-23T03:00:10;33.45;;;24.15;;
58015;SDS011;43809;52.110;20.964;2024-03-23T03:02:11;30.77;;;22.42;;
58015;SDS011;43809;52.110;20.964;2024-03-23T03:04:12;28.77;;;21.27;;
58015;SDS011;43809;52.110;20.964;2024-03-23T03:06:22;26.15;;;18.65;;
58015;SDS011;43809;52.110;20.964;2024-03-23T03:08:22;28.27;;;20.65;;
58015;SDS011;43809;52.110;20.964;2024-03-23T03:10:23;31.63;;;22.33;;
58015;SDS011;43809;52.110;20.964;2024-03-23T03:12:24;29.00;;;22.25;;
58015;SDS011;43809;52.110;20.964;2024-03-23T03:14:24;29.45;;;21.42;;
58015;SDS011;43809;52.110;20.964;2024-03-23T03:16:25;27.38;;;20.23;;
58015;SDS011;43809;52.110;20.964;2024-03-23T03:18:26;28.38;;;21.77;;
58015;SDS011;43809;52.110;20.964;2024-03-23T03:20:26;31.80;;;22.95;;
58015;SDS011;43809;52.110;20.964;2024-03-23T03:22:28;34.65;;;23.67;;
58015;SDS011;43809;52.110;20.964;2024-03-23T03:24:29;27.67;;;21.20;;
58015;SDS011;43809;52.110;20.964;2024-03-23T03:26:29;27.73;;;20.80;;
58015;SDS011;43809;52.110;20.964;2024-03-23T03:28:31;26.27;;;20.00;;
58015;SDS011;43809;52.110;20.964;2024-03-23T03:30:33;30.35;;;22.60;;
58015;SDS011;43809;52.110;20.964;2024-03-23T03:32:34;32.92;;;23.67;;
58015;SDS011;43809;52.110;20.964;2024-03-23T03:34:35;32.20;;;23.40;;
58015;SDS011;43809;52.110;20.964;2024-03-23T03:36:36;30.42;;;23.00;;
58015;SDS011;43809;52.110;20.964;2024-03-23T03:38:36;31.88;;;23.92;;
58015;SDS011;43809;52.110;20.964;2024-03-23T03:40:37;33.45;;;24.33;;
58015;SDS011;43809;52.110;20.964;2024-03-23T03:42:38;31.75;;;23.33;;
58015;SDS011;43809;52.110;20.964;2024-03-23T03:44:38;37.35;;;25.48;;
58015;SDS011;43809;52.110;20.964;2024-03-23T03:46:40;30.88;;;22.77;;
58015;SDS011;43809;52.110;20.964;2024-03-23T03:48:41;29.02;;;21.70;;
58015;SDS011;43809;52.110;20.964;2024-03-23T03:50:41;33.15;;;23.73;;
58015;SDS011;43809;52.110;20.964;2024-03-23T03:52:42;30.48;;;22.88;;
58015;SDS011;43809;52.110;20.964;2024-03-23T03:54:43;31.50;;;22.52;;
58015;SDS011;43809;52.110;20.964;2024-03-23T03:56:43;37.75;;;25.88;;
58015;SDS011;43809;52.110;20.964;2024-03-23T03:58:44;31.08;;;22.77;;
58015;SDS011;43809;52.110;20.964;2024-03-23T04:00:45;31.90;;;23.02;;
58015;SDS011;43809;52.110;20.964;2024-03-23T04:02:45;32.95;;;24.10;;
58015;SDS011;43809;52.110;20.964;2024-03-23T04:04:47;40.22;;;26.67;;
58015;SDS011;43809;52.110;20.964;2024-03-23T04:06:48;35.90;;;25.33;;
58015;SDS011;43809;52.110;20.964;2024-03-23T04:08:48;38.22;;;26.05;;
58015;SDS011;43809;52.110;20.964;2024-03-23T04:10:49;40.03;;;26.30;;
58015;SDS011;43809;52.110;20.964;2024-03-23T04:12:50;31.70;;;23.20;;
58015;SDS011;43809;52.110;20.964;2024-03-23T04:14:51;36.97;;;26.02;;
58015;SDS011;43809;52.110;20.964;2024-03-23T04:16:51;33.67;;;23.95;;
58015;SDS011;43809;52.110;20.964;2024-03-23T04:18:52;30.00;;;22.35;;
58015;SDS011;43809;52.110;20.964;2024-03-23T04:20:53;37.90;;;26.40;;
58015;SDS011;43809;52.110;20.964;2024-03-23T04:22:54;32.83;;;23.15;;
58015;SDS011;43809;52.110;20.964;2024-03-23T04:24:57;34.05;;;25.27;;
58015;SDS011;43809;52.110;20.964;2024-03-23T04:26:58;30.55;;;23.00;;
58015;SDS011;43809;52.110;20.964;2024-03-23T04:28:58;27.60;;;20.40;;
58015;SDS011;43809;52.110;20.964;2024-03-23T04:31:03;26.13;;;20.42;;
58015;SDS011;43809;52.110;20.964;2024-03-23T04:33:03;33.35;;;24.90;;
58015;SDS011;43809;52.110;20.964;2024-03-23T04:35:05;33.83;;;25.27;;
58015;SDS011;43809;52.110;20.964;2024-03-23T04:37:06;35.38;;;25.67;;
58015;SDS011;43809;52.110;20.964;2024-03-23T04:39:08;31.63;;;24.33;;
58015;SDS011;43809;52.110;20.964;2024-03-23T04:41:09;30.95;;;24.10;;
58015;SDS011;43809;52.110;20.964;2024-03-23T04:43:10;32.55;;;23.95;;
58015;SDS011;43809;52.110;20.964;2024-03-23T04:45:11;29.52;;;22.85;;
58015;SDS011;43809;52.110;20.964;2024-03-23T04:47:11;35.05;;;25.48;;
58015;SDS011;43809;52.110;20.964;2024-03-23T04:49:13;34.50;;;26.07;;
58015;SDS011;43809;52.110;20.964;2024-03-23T04:51:22;34.65;;;25.45;;
58015;SDS011;43809;52.110;20.964;2024-03-23T04:53:23;32.00;;;24.35;;
58015;SDS011;43809;52.110;20.964;2024-03-23T04:55:29;32.95;;;25.40;;
58015;SDS011;43809;52.110;20.964;2024-03-23T04:57:30;33.60;;;25.10;;
58015;SDS011;43809;52.110;20.964;2024-03-23T04:59:31;34.92;;;26.80;;
58015;SDS011;43809;52.110;20.964;2024-03-23T05:01:31;37.20;;;27.33;;
58015;SDS011;43809;52.110;20.964;2024-03-23T05:03:32;37.03;;;27.20;;
58015;SDS011;43809;52.110;20.964;2024-03-23T05:05:33;36.30;;;26.63;;
58015;SDS011;43809;52.110;20.964;2024-03-23T05:07:33;34.40;;;26.55;;
58015;SDS011;43809;52.110;20.964;2024-03-23T05:09:34;34.83;;;26.60;;
58015;SDS011;43809;52.110;20.964;2024-03-23T05:11:35;35.03;;;25.65;;
58015;SDS011;43809;52.110;20.964;2024-03-23T05:13:35;37.25;;;27.13;;
58015;SDS011;43809;52.110;20.964;2024-03-23T05:15:36;36.58;;;28.23;;
58015;SDS011;43809;52.110;20.964;2024-03-23T05:17:37;34.90;;;26.80;;
58015;SDS011;43809;52.110;20.964;2024-03-23T05:19:38;35.85;;;26.88;;
58015;SDS011;43809;52.110;20.964;2024-03-23T05:21:38;32.70;;;25.27;;
58015;SDS011;43809;52.110;20.964;2024-03-23T05:23:39;33.92;;;25.70;;
58015;SDS011;43809;52.110;20.964;2024-03-23T05:25:41;30.90;;;24.27;;
58015;SDS011;43809;52.110;20.964;2024-03-23T05:27:41;34.22;;;26.00;;
58015;SDS011;43809;52.110;20.964;2024-03-23T05:29:42;33.85;;;24.95;;
58015;SDS011;43809;52.110;20.964;2024-03-23T05:31:43;36.15;;;26.85;;
58015;SDS011;43809;52.110;20.964;2024-03-23T05:33:43;31.83;;;23.85;;
58015;SDS011;43809;52.110;20.964;2024-03-23T05:35:44;27.98;;;22.20;;
58015;SDS011;43809;52.110;20.964;2024-03-23T05:37:45;31.45;;;24.10;;
58015;SDS011;43809;52.110;20.964;2024-03-23T05:39:45;31.35;;;24.13;;
58015;SDS011;43809;52.110;20.964;2024-03-23T05:41:48;31.05;;;24.05;;
58015;SDS011;43809;52.110;20.964;2024-03-23T05:43:49;32.50;;;24.70;;
58015;SDS011;43809;52.110;20.964;2024-03-23T05:45:56;31.95;;;24.20;;
58015;SDS011;43809;52.110;20.964;2024-03-23T05:47:57;33.30;;;26.35;;
58015;SDS011;43809;52.110;20.964;2024-03-23T05:49:57;35.03;;;26.60;;
58015;SDS011;43809;52.110;20.964;2024-03-23T05:51:58;32.33;;;25.02;;
58015;SDS011;43809;52.110;20.964;2024-03-23T05:53:59;30.08;;;22.40;;
58015;SDS011;43809;52.110;20.964;2024-03-23T05:56:00;28.23;;;22.27;;
58015;SDS011;43809;52.110;20.964;2024-03-23T05:58:04;32.05;;;24.02;;
58015;SDS011;43809;52.110;20.964;2024-03-23T06:00:04;33.42;;;24.00;;
58015;SDS011;43809;52.110;20.964;2024-03-23T06:02:12;28.73;;;21.98;;
58015;SDS011;43809;52.110;20.964;2024-03-23T06:04:13;30.33;;;23.10;;
58015;SDS011;43809;52.110;20.964;2024-03-23T06:06:13;25.40;;;19.52;;
58015;SDS011;43809;52.110;20.964;2024-03-23T06:08:14;28.00;;;20.50;;
58015;SDS011;43809;52.110;20.964;2024-03-23T06:10:15;30.45;;;22.23;;
58015;SDS011;43809;52.110;20.964;2024-03-23T06:12:16;29.30;;;22.90;;
58015;SDS011;43809;52.110;20.964;2024-03-23T06:14:17;28.90;;;21.83;;
58015;SDS011;43809;52.110;20.964;2024-03-23T06:16:17;29.85;;;22.15;;
58015;SDS011;43809;52.110;20.964;2024-03-23T06:18:23;29.95;;;22.17;;
58015;SDS011;43809;52.110;20.964;2024-03-23T06:20:24;31.13;;;23.45;;
58015;SDS011;43809;52.110;20.964;2024-03-23T06:22:25;27.75;;;21.60;;
58015;SDS011;43809;52.110;20.964;2024-03-23T06:24:25;32.80;;;24.65;;
58015;SDS011;43809;52.110;20.964;2024-03-23T06:26:26;27.70;;;21.60;;
58015;SDS011;43809;52.110;20.964;2024-03-23T06:28:27;25.05;;;19.98;;
58015;SDS011;43809;52.110;20.964;2024-03-23T06:30:27;29.10;;;22.48;;
58015;SDS011;43809;52.110;20.964;2024-03-23T06:32:30;30.38;;;23.15;;
58015;SDS011;43809;52.110;20.964;2024-03-23T06:34:30;30.67;;;23.50;;
58015;SDS011;43809;52.110;20.964;2024-03-23T06:36:31;31.27;;;23.33;;
58015;SDS011;43809;52.110;20.964;2024-03-23T06:38:36;30.45;;;23.25;;
58015;SDS011;43809;52.110;20.964;2024-03-23T06:40:40;32.58;;;24.30;;
58015;SDS011;43809;52.110;20.964;2024-03-23T06:42:40;29.63;;;23.40;;
58015;SDS011;43809;52.110;20.964;2024-03-23T06:44:41;28.65;;;22.77;;
58015;SDS011;43809;52.110;20.964;2024-03-23T06:46:42;36.42;;;27.05;;
58015;SDS011;43809;52.110;20.964;2024-03-23T06:48:44;34.63;;;26.00;;
58015;SDS011;43809;52.110;20.964;2024-03-23T06:50:45;37.75;;;27.05;;
58015;SDS011;43809;52.110;20.964;2024-03-23T06:52:46;35.50;;;26.57;;
58015;SDS011;43809;52.110;20.964;2024-03-23T06:54:47;34.15;;;25.02;;
58015;SDS011;43809;52.110;20.964;2024-03-23T06:56:48;35.75;;;26.20;;
58015;SDS011;43809;52.110;20.964;2024-03-23T06:58:48;33.38;;;25.17;;
58015;SDS011;43809;52.110;20.964;2024-03-23T07:00:49;32.25;;;23.95;;
58015;SDS011;43809;52.110;20.964;2024-03-23T07:02:50;33.35;;;25.48;;
58015;SDS011;43809;52.110;20.964;2024-03-23T07:04:50;33.85;;;24.40;;
58015;SDS011;43809;52.110;20.964;2024-03-23T07:06:53;27.10;;;20.73;;
58015;SDS011;43809;52.110;20.964;2024-03-23T07:08:54;32.33;;;24.40;;
58015;SDS011;43809;52.110;20.964;2024-03-23T07:10:55;29.13;;;22.25;;
58015;SDS011;43809;52.110;20.964;2024-03-23T07:12:55;31.27;;;23.58;;
58015;SDS011;43809;52.110;20.964;2024-03-23T07:14:56;31.58;;;24.05;;
58015;SDS011;43809;52.110;20.964;2024-03-23T07:16:57;32.10;;;24.10;;
58015;SDS011;43809;52.110;20.964;2024-03-23T07:18:57;30.33;;;23.08;;
58015;SDS011;43809;52.110;20.964;2024-03-23T07:20:59;32.63;;;23.55;;
58015;SDS011;43809;52.110;20.964;2024-03-23T07:22:59;33.67;;;24.20;;
58015;SDS011;43809;52.110;20.964;2024-03-23T07:25:00;33.85;;;24.48;;
58015;SDS011;43809;52.110;20.964;2024-03-23T07:27:01;30.05;;;22.70;;
58015;SDS011;43809;52.110;20.964;2024-03-23T07:31:05;32.72;;;23.88;;
58015;SDS011;43809;52.110;20.964;2024-03-23T07:33:06;34.50;;;25.50;;
58015;SDS011;43809;52.110;20.964;2024-03-23T07:35:07;35.40;;;26.02;;
58015;SDS011;43809;52.110;20.964;2024-03-23T07:37:07;32.20;;;24.75;;
58015;SDS011;43809;52.110;20.964;2024-03-23T07:39:08;33.88;;;24.85;;
58015;SDS011;43809;52.110;20.964;2024-03-23T07:41:09;32.72;;;24.95;;
58015;SDS011;43809;52.110;20.964;2024-03-23T07:43:15;35.58;;;26.50;;
58015;SDS011;43809;52.110;20.964;2024-03-23T07:45:16;34.03;;;24.85;;
58015;SDS011;43809;52.110;20.964;2024-03-23T07:47:17;33.33;;;25.55;;
58015;SDS011;43809;52.110;20.964;2024-03-23T07:51:40;32.72;;;24.05;;
58015;SDS011;43809;52.110;20.964;2024-03-23T07:53:42;31.27;;;23.50;;
58015;SDS011;43809;52.110;20.964;2024-03-23T07:55:49;32.35;;;23.13;;
58015;SDS011;43809;52.110;20.964;2024-03-23T07:57:52;31.67;;;22.05;;
58015;SDS011;43809;52.110;20.964;2024-03-23T07:59:54;28.55;;;21.15;;
58015;SDS011;43809;52.110;20.964;2024-03-23T08:02:00;34.05;;;23.42;;
58015;SDS011;43809;52.110;20.964;2024-03-23T08:04:00;32.63;;;22.98;;
58015;SDS011;43809;52.110;20.964;2024-03-23T08:06:23;30.27;;;22.13;;
58015;SDS011;43809;52.110;20.964;2024-03-23T08:08:32;32.20;;;22.98;;
58015;SDS011;43809;52.110;20.964;2024-03-23T08:10:33;27.47;;;20.93;;
58015;SDS011;43809;52.110;20.964;2024-03-23T08:12:33;27.17;;;19.98;;
58015;SDS011;43809;52.110;20.964;2024-03-23T08:14:34;30.15;;;21.83;;
58015;SDS011;43809;52.110;20.964;2024-03-23T08:16:35;27.85;;;20.38;;
58015;SDS011;43809;52.110;20.964;2024-03-23T08:18:35;28.40;;;21.13;;
58015;SDS011;43809;52.110;20.964;2024-03-23T08:20:36;27.95;;;20.20;;
58015;SDS011;43809;52.110;20.964;2024-03-23T08:22:37;28.55;;;20.67;;
58015;SDS011;43809;52.110;20.964;2024-03-23T08:24:37;28.20;;;19.75;;
58015;SDS011;43809;52.110;20.964;2024-03-23T08:26:43;28.02;;;20.27;;
58015;SDS011;43809;52.110;20.964;2024-03-23T08:28:44;23.95;;;18.65;;
58015;SDS011;43809;52.110;20.964;2024-03-23T08:30:44;23.83;;;18.52;;
58015;SDS011;43809;52.110;20.964;2024-03-23T08:32:45;26.17;;;18.80;;
58015;SDS011;43809;52.110;20.964;2024-03-23T08:34:46;25.92;;;18.50;;
58015;SDS011;43809;52.110;20.964;2024-03-23T08:36:47;25.00;;;17.98;;
58015;SDS011;43809;52.110;20.964;2024-03-23T08:38:47;25.25;;;19.15;;
58015;SDS011;43809;52.110;20.964;2024-03-23T08:41:00;26.25;;;19.83;;
58015;SDS011;43809;52.110;20.964;2024-03-23T08:43:03;26.40;;;19.43;;
58015;SDS011;43809;52.110;20.964;2024-03-23T08:45:04;24.25;;;17.88;;
58015;SDS011;43809;52.110;20.964;2024-03-23T08:47:04;25.58;;;18.17;;
58015;SDS011;43809;52.110;20.964;2024-03-23T08:49:05;23.42;;;17.73;;
58015;SDS011;43809;52.110;20.964;2024-03-23T08:51:07;23.83;;;17.80;;
58015;SDS011;43809;52.110;20.964;2024-03-23T08:53:08;21.60;;;17.05;;
58015;SDS011;43809;52.110;20.964;2024-03-23T08:55:08;22.98;;;16.95;;
58015;SDS011;43809;52.110;20.964;2024-03-23T08:59:56;19.60;;;15.07;;
58015;SDS011;43809;52.110;20.964;2024-03-23T09:01:56;18.27;;;14.30;;
58015;SDS011;43809;52.110;20.964;2024-03-23T09:03:57;19.63;;;14.35;;
58015;SDS011;43809;52.110;20.964;2024-03-23T09:06:14;20.02;;;14.63;;
58015;SDS011;43809;52.110;20.964;2024-03-23T09:08:15;17.38;;;13.73;;
58015;SDS011;43809;52.110;20.964;2024-03-23T09:10:16;19.25;;;13.82;;
58015;SDS011;43809;52.110;20.964;2024-03-23T09:12:17;17.95;;;13.60;;
58015;SDS011;43809;52.110;20.964;2024-03-23T09:14:18;17.17;;;13.48;;
58015;SDS011;43809;52.110;20.964;2024-03-23T09:16:19;16.65;;;13.05;;
58015;SDS011;43809;52.110;20.964;2024-03-23T09:18:31;16.13;;;12.82;;
58015;SDS011;43809;52.110;20.964;2024-03-23T09:20:32;18.15;;;12.90;;
58015;SDS011;43809;52.110;20.964;2024-03-23T09:22:33;17.83;;;13.23;;
58015;SDS011;43809;52.110;20.964;2024-03-23T09:24:33;16.33;;;12.18;;
58015;SDS011;43809;52.110;20.964;2024-03-23T09:26:34;16.33;;;12.30;;
58015;SDS011;43809;52.110;20.964;2024-03-23T09:28:35;16.05;;;12.07;;
58015;SDS011;43809;52.110;20.964;2024-03-23T09:30:36;17.00;;;12.70;;
58015;SDS011;43809;52.110;20.964;2024-03-23T09:32:43;17.00;;;12.27;;
58015;SDS011;43809;52.110;20.964;2024-03-23T09:34:44;14.00;;;11.30;;
58015;SDS011;43809;52.110;20.964;2024-03-23T09:36:44;16.15;;;11.63;;
58015;SDS011;43809;52.110;20.964;2024-03-23T09:38:46;15.27;;;11.90;;
58015;SDS011;43809;52.110;20.964;2024-03-23T09:40:50;15.18;;;11.80;;
58015;SDS011;43809;52.110;20.964;2024-03-23T09:43:02;15.40;;;11.05;;
58015;SDS011;43809;52.110;20.964;2024-03-23T09:45:50;15.52;;;11.57;;
58015;SDS011;43809;52.110;20.964;2024-03-23T09:50:36;14.13;;;11.65;;
58015;SDS011;43809;52.110;20.964;2024-03-23T09:52:51;16.10;;;12.00;;
58015;SDS011;43809;52.110;20.964;2024-03-23T09:55:10;15.63;;;12.30;;
58015;SDS011;43809;52.110;20.964;2024-03-23T09:57:14;16.52;;;12.23;;
58015;SDS011;43809;52.110;20.964;2024-03-23T09:59:56;14.63;;;11.90;;
58015;SDS011;43809;52.110;20.964;2024-03-23T10:02:20;14.88;;;11.90;;
58015;SDS011;43809;52.110;20.964;2024-03-23T10:04:40;14.18;;;11.63;;
58015;SDS011;43809;52.110;20.964;2024-03-23T10:06:41;15.65;;;11.45;;
58015;SDS011;43809;52.110;20.964;2024-03-23T10:08:42;14.15;;;11.13;;
58015;SDS011;43809;52.110;20.964;2024-03-23T10:10:54;15.82;;;11.38;;
58015;SDS011;43809;52.110;20.964;2024-03-23T10:12:55;13.93;;;11.47;;
58015;SDS011;43809;52.110;20.964;2024-03-23T10:15:04;13.70;;;11.27;;
58015;SDS011;43809;52.110;20.964;2024-03-23T10:17:19;15.77;;;12.23;;
58015;SDS011;43809;52.110;20.964;2024-03-23T10:19:30;15.07;;;11.10;;
58015;SDS011;43809;52.110;20.964;2024-03-23T10:21:30;15.10;;;11.02;;
58015;SDS011;43809;52.110;20.964;2024-03-23T10:23:38;15.20;;;12.13;;
58015;SDS011;43809;52.110;20.964;2024-03-23T10:25:38;15.45;;;11.82;;
58015;SDS011;43809;52.110;20.964;2024-03-23T10:27:39;15.23;;;11.68;;
58015;SDS011;43809;52.110;20.964;2024-03-23T10:29:40;14.70;;;11.45;;
58015;SDS011;43809;52.110;20.964;2024-03-23T10:31:40;13.38;;;10.52;;
58015;SDS011;43809;52.110;20.964;2024-03-23T10:33:45;14.25;;;11.07;;
58015;SDS011;43809;52.110;20.964;2024-03-23T10:35:45;13.75;;;10.40;;
58015;SDS011;43809;52.110;20.964;2024-03-23T10:37:47;11.80;;;9.82;;
58015;SDS011;43809;52.110;20.964;2024-03-23T10:39:48;13.57;;;10.70;;
58015;SDS011;43809;52.110;20.964;2024-03-23T10:41:49;14.13;;;11.48;;
58015;SDS011;43809;52.110;20.964;2024-03-23T10:43:51;11.55;;;9.40;;
58015;SDS011;43809;52.110;20.964;2024-03-23T10:45:51;13.50;;;10.10;;
58015;SDS011;43809;52.110;20.964;2024-03-23T10:47:52;12.73;;;9.02;;
58015;SDS011;43809;52.110;20.964;2024-03-23T10:49:53;12.82;;;9.95;;
58015;SDS011;43809;52.110;20.964;2024-03-23T10:51:54;12.13;;;9.85;;
58015;SDS011;43809;52.110;20.964;2024-03-23T10:53:55;12.18;;;9.15;;
58015;SDS011;43809;52.110;20.964;2024-03-23T10:55:57;11.48;;;9.38;;
58015;SDS011;43809;52.110;20.964;2024-03-23T10:57:58;11.65;;;8.98;;
58015;SDS011;43809;52.110;20.964;2024-03-23T10:59:59;12.47;;;9.10;;
58015;SDS011;43809;52.110;20.964;2024-03-23T11:02:02;11.32;;;9.02;;
58015;SDS011;43809;52.110;20.964;2024-03-23T11:04:04;11.13;;;8.53;;
58015;SDS011;43809;52.110;20.964;2024-03-23T11:06:05;11.80;;;8.32;;
58015;SDS011;43809;52.110;20.964;2024-03-23T11:08:06;9.95;;;8.18;;
58015;SDS011;43809;52.110;20.964;2024-03-23T11:10:24;11.25;;;8.40;;
58015;SDS011;43809;52.110;20.964;2024-03-23T11:14:25;9.55;;;8.30;;
58015;SDS011;43809;52.110;20.964;2024-03-23T11:16:27;9.88;;;8.20;;
58015;SDS011;43809;52.110;20.964;2024-03-23T11:18:32;10.30;;;8.30;;
58015;SDS011;43809;52.110;20.964;2024-03-23T11:20:34;9.25;;;7.80;;
58015;SDS011;43809;52.110;20.964;2024-03-23T11:24:41;10.07;;;8.07;;
58015;SDS011;43809;52.110;20.964;2024-03-23T11:29:08;11.10;;;8.88;;
58015;SDS011;43809;52.110;20.964;2024-03-23T11:31:09;10.32;;;8.23;;
58015;SDS011;43809;52.110;20.964;2024-03-23T11:33:11;10.63;;;8.73;;
58015;SDS011;43809;52.110;20.964;2024-03-23T11:35:31;10.30;;;8.10;;
58015;SDS011;43809;52.110;20.964;2024-03-23T11:37:33;10.30;;;7.90;;
58015;SDS011;43809;52.110;20.964;2024-03-23T11:39:34;9.20;;;7.07;;
58015;SDS011;43809;52.110;20.964;2024-03-23T11:41:34;9.88;;;8.00;;
58015;SDS011;43809;52.110;20.964;2024-03-23T11:43:35;10.55;;;8.13;;
58015;SDS011;43809;52.110;20.964;2024-03-23T11:45:45;8.98;;;7.68;;
58015;SDS011;43809;52.110;20.964;2024-03-23T11:47:46;11.65;;;9.07;;
58015;SDS011;43809;52.110;20.964;2024-03-23T11:49:48;12.32;;;9.10;;
58015;SDS011;43809;52.110;20.964;2024-03-23T11:51:49;8.23;;;7.10;;
58015;SDS011;43809;52.110;20.964;2024-03-23T11:53:50;7.72;;;6.70;;
58015;SDS011;43809;52.110;20.964;2024-03-23T11:55:51;11.35;;;8.57;;
58015;SDS011;43809;52.110;20.964;2024-03-23T11:57:52;12.37;;;8.13;;
58015;SDS011;43809;52.110;20.964;2024-03-23T11:59:53;10.20;;;8.50;;
58015;SDS011;43809;52.110;20.964;2024-03-23T12:01:54;10.65;;;8.07;;
58015;SDS011;43809;52.110;20.964;2024-03-23T12:03:54;10.50;;;8.00;;
58015;SDS011;43809;52.110;20.964;2024-03-23T12:05:56;8.25;;;6.55;;
58015;SDS011;43809;52.110;20.964;2024-03-23T12:10:18;9.95;;;7.97;;
58015;SDS011;43809;52.110;20.964;2024-03-23T12:12:19;9.23;;;7.35;;
58015;SDS011;43809;52.110;20.964;2024-03-23T12:14:21;10.63;;;8.30;;
58015;SDS011;43809;52.110;20.964;2024-03-23T12:16:24;9.68;;;8.00;;
58015;SDS011;43809;52.110;20.964;2024-03-23T12:18:25;9.85;;;8.43;;
58015;SDS011;43809;52.110;20.964;2024-03-23T12:20:25;10.98;;;8.25;;
58015;SDS011;43809;52.110;20.964;2024-03-23T12:22:26;10.18;;;8.02;;
58015;SDS011;43809;52.110;20.964;2024-03-23T12:24:27;9.07;;;7.55;;
58015;SDS011;43809;52.110;20.964;2024-03-23T12:26:27;8.10;;;6.05;;
58015;SDS011;43809;52.110;20.964;2024-03-23T12:28:28;7.85;;;6.45;;
58015;SDS011;43809;52.110;20.964;2024-03-23T12:30:29;8.55;;;6.25;;
58015;SDS011;43809;52.110;20.964;2024-03-23T12:32:29;7.10;;;5.43;;
58015;SDS011;43809;52.110;20.964;2024-03-23T12:34:30;9.10;;;7.65;;
58015;SDS011;43809;52.110;20.964;2024-03-23T12:36:30;8.15;;;6.78;;
58015;SDS011;43809;52.110;20.964;2024-03-23T12:38:31;7.82;;;6.60;;
58015;SDS011;43809;52.110;20.964;2024-03-23T12:40:32;7.70;;;6.30;;
58015;SDS011;43809;52.110;20.964;2024-03-23T12:42:33;8.52;;;6.80;;
58015;SDS011;43809;52.110;20.964;2024-03-23T12:44:34;8.32;;;7.20;;
58015;SDS011;43809;52.110;20.964;2024-03-23T12:46:35;9.52;;;8.00;;
58015;SDS011;43809;52.110;20.964;2024-03-23T12:48:36;9.88;;;7.35;;
58015;SDS011;43809;52.110;20.964;2024-03-23T12:50:36;6.72;;;6.03;;
58015;SDS011;43809;52.110;20.964;2024-03-23T12:52:37;9.60;;;7.65;;
58015;SDS011;43809;52.110;20.964;2024-03-23T12:54:38;9.65;;;7.65;;
58015;SDS011;43809;52.110;20.964;2024-03-23T12:56:38;8.20;;;6.70;;
58015;SDS011;43809;52.110;20.964;2024-03-23T12:58:39;9.18;;;8.18;;
58015;SDS011;43809;52.110;20.964;2024-03-23T13:03:01;9.43;;;7.50;;